Time;durP1;ratioP1;P1;durP2;ratioP2;P2;SDS_P1;SDS_P2;PMS_P1;PMS_P2;Temp;Humidity;BMP_temperature;BMP_pressure;BME280_temperature;BME280_humidity;BME280_pressure;Samples;Min_cycle;Max_cycle;Signal;HPM_P1;HPM_P2
2023/10/01 00:00:39;;;;;;;15.17;4.93;;;11.30;99.90;;;;;;6276044;22;20362;-81
2023/10/01 00:03:15;;;;;;;15.23;5.30;;;11.30;99.90;;;;;;6276804;22;20162;-83
2023/10/01 00:05:51;;;;;;;13.07;4.60;;;11.20;99.90;;;;;;6276031;22;20185;-81
2023/10/01 00:08:22;;;;;;;13.63;5.20;;;11.20;99.90;;;;;;6248832;22;20195;-80
2023/10/01 00:11:05;;;;;;;12.87;5.00;;;11.10;99.90;;;;;;6250159;22;20578;-78
2023/10/01 00:13:49;;;;;;;13.53;5.40;;;11.10;99.90;;;;;;6276674;22;20248;-78
2023/10/01 00:16:45;;;;;;;12.80;5.00;;;11.10;99.90;;;;;;6261441;22;20175;-82
2023/10/01 00:19:13;;;;;;;14.57;4.80;;;11.10;99.90;;;;;;6276639;22;20173;-82
2023/10/01 00:21:44;;;;;;;10.67;4.40;;;11.20;99.90;;;;;;6277340;22;20621;-81
2023/10/01 00:24:23;;;;;;;11.93;5.17;;;11.10;99.90;;;;;;6276060;22;20591;-80
2023/10/01 00:26:53;;;;;;;12.03;5.07;;;11.10;99.90;;;;;;6275438;22;20165;-78
2023/10/01 00:29:28;;;;;;;12.80;4.63;;;11.10;99.90;;;;;;6275958;22;20173;-79
2023/10/01 00:32:04;;;;;;;13.63;4.60;;;10.90;99.90;;;;;;6274639;22;20201;-81
2023/10/01 00:34:34;;;;;;;13.40;4.70;;;11.00;99.90;;;;;;6249226;22;20624;-80
2023/10/01 00:37:04;;;;;;;14.57;4.90;;;11.00;99.90;;;;;;6275779;22;20186;-80
2023/10/01 00:39:41;;;;;;;13.20;4.87;;;11.00;99.90;;;;;;6276181;22;20552;-82
2023/10/01 00:42:17;;;;;;;14.37;4.63;;;11.10;99.90;;;;;;6276979;22;20615;-82
2023/10/01 00:44:49;;;;;;;18.53;5.70;;;11.00;99.90;;;;;;6249488;22;20174;-82
2023/10/01 00:47:25;;;;;;;11.17;4.90;;;11.00;99.90;;;;;;6275594;22;20166;-82
2023/10/01 00:50:05;;;;;;;18.77;5.63;;;11.00;99.90;;;;;;6275975;22;20197;-79
2023/10/01 00:52:37;;;;;;;17.57;5.57;;;11.00;99.90;;;;;;6275568;22;20193;-78
2023/10/01 00:55:23;;;;;;;14.13;4.90;;;10.90;99.90;;;;;;6248205;22;20173;-79
2023/10/01 00:57:53;;;;;;;10.67;4.70;;;11.00;99.90;;;;;;6248600;22;20172;-82
2023/10/01 01:00:36;;;;;;;15.77;4.77;;;10.90;99.90;;;;;;6275130;22;20601;-80
2023/10/01 01:03:22;;;;;;;13.97;4.60;;;10.90;99.90;;;;;;6250512;22;20189;-79
2023/10/01 01:08:46;;;;;;;13.10;4.93;;;10.90;99.90;;;;;;6275260;22;20589;-79
2023/10/01 01:11:26;;;;;;;12.00;4.60;;;10.80;99.90;;;;;;6224292;22;20267;-81
2023/10/01 01:14:01;;;;;;;14.80;4.73;;;10.80;99.90;;;;;;6275611;22;20601;-78
2023/10/01 01:16:49;;;;;;;14.80;4.70;;;10.90;99.90;;;;;;6272821;22;20173;-81
2023/10/01 01:19:19;;;;;;;10.80;4.60;;;10.80;99.90;;;;;;6248798;22;20157;-80
2023/10/01 01:21:54;;;;;;;13.13;5.20;;;10.90;99.90;;;;;;6248057;22;20284;-81
2023/10/01 01:24:29;;;;;;;12.33;4.93;;;10.90;99.90;;;;;;6247105;22;20197;-82
2023/10/01 01:27:06;;;;;;;15.53;4.90;;;10.90;99.90;;;;;;6250127;22;20172;-81
2023/10/01 01:29:44;;;;;;;15.37;5.27;;;10.90;99.90;;;;;;6248698;22;20177;-82
2023/10/01 01:32:19;;;;;;;14.60;5.23;;;10.90;99.90;;;;;;6274602;22;20273;-82
2023/10/01 01:34:52;;;;;;;16.27;5.20;;;11.00;99.90;;;;;;6247770;22;20220;-82
2023/10/01 01:37:46;;;;;;;12.63;5.00;;;10.80;99.90;;;;;;6275067;22;20323;-81
2023/10/01 01:40:40;;;;;;;14.70;5.10;;;10.80;99.90;;;;;;6223991;22;20165;-78
2023/10/01 01:43:21;;;;;;;13.00;4.77;;;10.90;99.90;;;;;;6249395;22;20229;-82
2023/10/01 01:46:18;;;;;;;13.63;4.67;;;10.90;99.90;;;;;;6247883;22;20201;-81
2023/10/01 01:48:52;;;;;;;11.40;4.50;;;11.00;99.90;;;;;;6275857;22;20192;-83
2023/10/01 01:51:20;;;;;;;11.90;5.00;;;10.90;99.90;;;;;;6248532;22;20555;-82
2023/10/01 01:53:50;;;;;;;12.50;4.27;;;10.80;99.90;;;;;;6276114;22;20169;-82
2023/10/01 01:56:24;;;;;;;14.10;4.30;;;10.90;99.90;;;;;;6275476;22;20555;-82
2023/10/01 01:59:01;;;;;;;14.00;4.57;;;11.00;99.90;;;;;;6275667;22;20170;-82
2023/10/01 02:01:36;;;;;;;14.33;4.60;;;11.00;99.90;;;;;;6249145;22;20673;-82
2023/10/01 02:04:23;;;;;;;14.00;4.20;;;10.90;99.90;;;;;;6249345;22;20176;-82
2023/10/01 02:07:11;;;;;;;12.43;4.50;;;11.00;99.90;;;;;;6249573;22;20569;-82
2023/10/01 02:09:59;;;;;;;15.23;4.43;;;11.00;99.90;;;;;;6251650;22;20166;-79
2023/10/01 02:12:31;;;;;;;13.60;3.93;;;11.00;99.90;;;;;;6274363;22;20264;-79
2023/10/01 02:15:15;;;;;;;12.63;4.33;;;11.00;99.90;;;;;;6273202;22;20166;-80
2023/10/01 02:17:52;;;;;;;12.80;4.10;;;11.00;99.90;;;;;;6248517;22;20248;-83
2023/10/01 02:20:27;;;;;;;10.83;4.37;;;11.10;99.90;;;;;;6247397;22;20165;-82
2023/10/01 02:22:58;;;;;;;17.90;4.83;;;10.90;99.90;;;;;;6275206;22;20165;-78
2023/10/01 02:25:46;;;;;;;14.47;4.30;;;11.00;99.90;;;;;;6248782;22;20169;-81
2023/10/01 02:28:18;;;;;;;12.47;4.40;;;11.00;99.90;;;;;;6247588;22;20176;-80
2023/10/01 02:30:56;;;;;;;12.33;4.27;;;11.00;99.90;;;;;;6275167;22;20166;-81
2023/10/01 02:34:15;;;;;;;12.80;4.57;;;11.00;99.90;;;;;;6274964;22;20161;-80
2023/10/01 02:36:26;;;;;;;11.60;4.17;;;11.00;99.90;;;;;;6256535;22;20193;-82
2023/10/01 02:39:00;;;;;;;13.53;4.67;;;11.00;99.90;;;;;;6248094;22;20852;-82
2023/10/01 02:44:47;;;;;;;13.17;3.73;;;11.10;99.90;;;;;;6122387;23;20378;-83
2023/10/01 02:47:17;;;;;;;13.00;4.90;;;11.00;99.90;;;;;;6122244;23;20165;-84
2023/10/01 02:49:59;;;;;;;10.40;4.27;;;11.00;99.90;;;;;;6097188;23;20577;-81
2023/10/01 02:52:36;;;;;;;11.83;4.07;;;11.00;99.90;;;;;;6073733;23;20280;-83
2023/10/01 02:55:18;;;;;;;10.83;4.30;;;11.00;99.90;;;;;;6096922;23;20172;-83
2023/10/01 02:57:50;;;;;;;12.10;4.23;;;10.90;99.90;;;;;;6122266;23;20169;-81
2023/10/01 03:00:30;;;;;;;11.00;4.27;;;11.00;99.90;;;;;;6191044;22;20555;-80
2023/10/01 03:03:14;;;;;;;9.87;4.33;;;10.90;99.90;;;;;;6246948;22;20176;-80
2023/10/01 03:05:47;;;;;;;12.80;4.17;;;11.00;99.90;;;;;;6247390;22;20502;-83
2023/10/01 03:08:40;;;;;;;10.03;4.20;;;11.00;99.90;;;;;;6274672;22;20211;-82
2023/10/01 03:11:08;;;;;;;10.47;4.17;;;11.00;99.90;;;;;;6274402;22;20189;-83
2023/10/01 03:13:46;;;;;;;12.73;4.50;;;10.90;99.90;;;;;;6247353;22;20252;-83
2023/10/01 03:19:25;;;;;;;14.63;4.60;;;10.90;99.90;;;;;;6276297;22;20153;-82
2023/10/01 03:22:15;;;;;;;9.63;4.10;;;10.80;99.90;;;;;;6249152;22;20197;-83
2023/10/01 03:24:47;;;;;;;13.43;4.13;;;10.90;99.90;;;;;;6275620;22;20214;-79
2023/10/01 03:27:33;;;;;;;13.10;3.97;;;10.90;99.90;;;;;;6275909;22;20510;-83
2023/10/01 03:30:21;;;;;;;9.03;3.87;;;10.90;99.90;;;;;;6276072;22;20236;-83
2023/10/01 03:32:56;;;;;;;12.70;4.20;;;10.70;99.90;;;;;;6274809;22;20192;-82
2023/10/01 03:35:24;;;;;;;13.50;4.30;;;10.90;99.90;;;;;;6276539;22;20598;-82
2023/10/01 03:38:14;;;;;;;15.20;4.03;;;10.90;99.90;;;;;;6277445;22;20146;-83
2023/10/01 03:41:08;;;;;;;9.43;3.57;;;10.90;99.90;;;;;;6248903;22;20223;-79
2023/10/01 03:43:36;;;;;;;12.80;4.10;;;10.80;99.90;;;;;;6276231;22;20247;-83
2023/10/01 03:52:00;;;;;;;18.37;4.63;;;10.90;99.90;;;;;;6245365;22;20580;-79
2023/10/01 03:57:52;;;;;;;14.90;4.03;;;11.00;99.90;;;;;;6245907;23;20212;-79
2023/10/01 04:03:14;;;;;;;13.13;3.93;;;10.90;99.90;;;;;;6242030;23;20170;-79
2023/10/01 04:06:06;;;;;;;12.97;4.13;;;10.90;99.90;;;;;;6178366;23;20198;-78
2023/10/01 04:08:48;;;;;;;13.93;4.40;;;11.00;99.90;;;;;;6187252;23;20190;-77
2023/10/01 04:11:41;;;;;;;10.57;3.80;;;10.90;99.90;;;;;;6187036;23;20175;-80
2023/10/01 04:14:10;;;;;;;8.10;3.60;;;11.00;99.90;;;;;;6187509;23;20557;-80
2023/10/01 04:16:56;;;;;;;11.37;3.80;;;10.90;99.90;;;;;;6211571;23;20178;-79
2023/10/01 04:19:32;;;;;;;8.60;3.50;;;11.00;99.90;;;;;;6188500;23;20250;-80
2023/10/01 04:22:09;;;;;;;10.47;3.60;;;11.00;99.90;;;;;;6211415;23;20274;-78
2023/10/01 04:24:42;;;;;;;13.50;4.17;;;11.10;99.90;;;;;;6212352;23;20221;-83
2023/10/01 04:27:23;;;;;;;14.83;3.80;;;11.20;99.90;;;;;;6212012;23;20177;-79
2023/10/01 04:30:00;;;;;;;11.00;3.57;;;11.10;99.90;;;;;;6189026;23;20598;-84
2023/10/01 04:32:33;;;;;;;10.43;3.70;;;11.20;99.90;;;;;;6211926;23;20187;-82
2023/10/01 04:35:12;;;;;;;14.30;4.23;;;11.10;99.90;;;;;;6163823;23;20222;-81
2023/10/01 04:37:48;;;;;;;13.40;3.90;;;11.20;99.90;;;;;;6236669;23;20494;-84
2023/10/01 04:40:32;;;;;;;9.93;3.47;;;11.20;99.90;;;;;;6245099;22;20162;-78
2023/10/01 04:43:16;;;;;;;9.10;3.30;;;11.10;99.90;;;;;;6238894;23;20154;-80
2023/10/01 04:45:52;;;;;;;10.93;3.70;;;11.10;99.90;;;;;;6246161;23;20246;-80
2023/10/01 04:48:25;;;;;;;11.83;3.67;;;11.10;99.90;;;;;;6249239;22;20504;-80
2023/10/01 04:50:54;;;;;;;12.10;3.60;;;11.20;99.90;;;;;;6276641;22;20633;-84
2023/10/01 04:53:46;;;;;;;11.47;3.57;;;11.20;99.90;;;;;;6253690;22;20274;-78
2023/10/01 04:56:25;;;;;;;11.03;3.40;;;11.20;99.90;;;;;;6224705;22;20191;-78
2023/10/01 04:59:10;;;;;;;12.20;3.30;;;11.30;99.90;;;;;;6226175;22;20174;-83
2023/10/01 05:01:42;;;;;;;12.50;3.60;;;11.20;99.90;;;;;;6248869;22;20263;-86
2023/10/01 05:04:15;;;;;;;12.20;3.80;;;11.30;99.90;;;;;;6275480;22;20166;-81
2023/10/01 05:07:04;;;;;;;14.50;3.53;;;11.40;99.90;;;;;;6250436;22;20185;-78
2023/10/01 05:09:41;;;;;;;8.13;3.20;;;11.40;99.90;;;;;;6249180;22;20162;-80
2023/10/01 05:12:30;;;;;;;12.10;3.33;;;11.40;99.90;;;;;;6275434;22;20193;-79
2023/10/01 05:14:59;;;;;;;14.17;3.57;;;11.40;99.90;;;;;;6249157;22;20223;-82
2023/10/01 05:17:35;;;;;;;12.83;3.73;;;11.40;99.90;;;;;;6250691;22;20196;-81
2023/10/01 05:20:08;;;;;;;9.30;3.20;;;11.40;99.90;;;;;;6276270;22;20158;-78
2023/10/01 05:22:46;;;;;;;14.43;4.40;;;11.50;99.90;;;;;;6248248;22;20505;-81
2023/10/01 05:25:26;;;;;;;9.80;3.20;;;11.60;99.90;;;;;;6275647;22;20248;-78
2023/10/01 05:28:23;;;;;;;11.10;3.13;;;11.60;99.90;;;;;;6250653;22;20192;-83
2023/10/01 05:31:12;;;;;;;8.03;3.00;;;11.60;99.90;;;;;;6276397;22;20173;-83
2023/10/01 05:33:46;;;;;;;13.73;3.13;;;11.50;99.90;;;;;;6249486;22;20204;-82
2023/10/01 05:36:23;;;;;;;9.70;2.87;;;11.40;99.90;;;;;;6275791;22;20182;-80
2023/10/01 05:38:54;;;;;;;10.17;3.37;;;11.50;99.90;;;;;;6275640;22;20207;-82
2023/10/01 05:41:45;;;;;;;10.70;3.33;;;11.60;99.90;;;;;;6224738;22;20169;-82
2023/10/01 05:44:15;;;;;;;10.67;3.03;;;11.70;99.90;;;;;;6276021;22;20165;-83
2023/10/01 05:46:43;;;;;;;11.33;3.40;;;11.80;99.90;;;;;;6274896;22;20174;-80
2023/10/01 05:49:18;;;;;;;9.27;2.87;;;11.80;99.90;;;;;;6274187;22;20260;-79
2023/10/01 05:51:50;;;;;;;15.80;3.93;;;11.80;99.90;;;;;;6248451;22;20192;-83
2023/10/01 05:54:21;;;;;;;8.13;2.90;;;11.90;99.90;;;;;;6223466;22;20572;-76
2023/10/01 05:57:02;;;;;;;24.30;4.20;;;11.90;99.90;;;;;;6277314;22;20316;-83
2023/10/01 05:59:56;;;;;;;9.93;3.17;;;11.90;99.90;;;;;;6251023;22;20172;-80
2023/10/01 06:03:06;;;;;;;9.50;3.17;;;12.10;99.90;;;;;;6253245;22;20154;-83
2023/10/01 06:05:50;;;;;;;11.63;3.40;;;12.10;99.90;;;;;;6248124;22;20644;-79
2023/10/01 06:08:49;;;;;;;10.07;2.73;;;11.90;99.90;;;;;;6274588;22;20174;-79
2023/10/01 06:11:38;;;;;;;11.20;3.30;;;11.90;99.90;;;;;;6249156;22;20166;-81
2023/10/01 06:17:05;;;;;;;8.87;3.10;;;12.10;99.90;;;;;;6275376;22;20332;-82
2023/10/01 06:19:43;;;;;;;9.57;2.80;;;12.10;99.90;;;;;;6250130;22;20210;-78
2023/10/01 06:22:26;;;;;;;9.43;2.90;;;12.20;99.90;;;;;;6247868;22;20203;-82
2023/10/01 06:25:06;;;;;;;8.07;3.17;;;12.30;99.90;;;;;;6274996;22;20180;-81
2023/10/01 06:27:40;;;;;;;9.47;2.93;;;12.40;99.90;;;;;;6249036;22;20162;-77
2023/10/01 06:30:20;;;;;;;12.60;3.70;;;12.50;99.90;;;;;;6275242;22;20244;-78
2023/10/01 06:32:51;;;;;;;9.40;3.00;;;12.60;99.90;;;;;;6249023;22;20189;-81
2023/10/01 06:35:35;;;;;;;21.43;4.70;;;12.70;99.90;;;;;;6275156;22;20157;-80
2023/10/01 06:38:05;;;;;;;11.73;3.97;;;12.90;99.90;;;;;;6276012;22;20532;-80
2023/10/01 06:40:42;;;;;;;9.60;3.40;;;12.80;99.90;;;;;;6248047;22;20165;-80
2023/10/01 06:43:48;;;;;;;10.20;3.20;;;12.90;99.90;;;;;;6272127;22;20177;-82
2023/10/01 06:46:30;;;;;;;10.20;3.07;;;13.10;99.90;;;;;;6252217;22;20170;-80
2023/10/01 06:49:03;;;;;;;6.67;2.90;;;13.00;99.90;;;;;;6277442;22;20184;-80
2023/10/01 06:51:46;;;;;;;12.00;3.10;;;13.00;99.90;;;;;;6277226;22;20185;-81
2023/10/01 06:54:45;;;;;;;10.13;3.10;;;13.10;99.90;;;;;;6277506;22;20193;-81
2023/10/01 06:57:19;;;;;;;16.60;4.30;;;13.20;99.90;;;;;;6277375;22;20193;-81
2023/10/01 06:59:59;;;;;;;12.03;3.30;;;13.30;99.90;;;;;;6249276;22;20219;-78
2023/10/01 07:02:31;;;;;;;11.87;2.97;;;13.20;99.90;;;;;;6249540;22;20252;-79
2023/10/01 07:05:03;;;;;;;12.43;3.33;;;13.20;99.90;;;;;;6275978;22;20702;-78
2023/10/01 07:07:42;;;;;;;14.27;3.77;;;13.20;99.90;;;;;;6276161;22;20682;-80
2023/10/01 07:10:14;;;;;;;12.83;3.10;;;13.20;99.90;;;;;;6277355;22;20170;-80
2023/10/01 07:13:04;;;;;;;9.47;2.90;;;13.30;99.90;;;;;;6278124;22;20650;-78
2023/10/01 07:15:46;;;;;;;11.27;3.30;;;13.40;99.90;;;;;;6250414;22;20626;-79
2023/10/01 07:18:19;;;;;;;12.47;3.33;;;13.50;99.90;;;;;;6276597;22;20529;-79
2023/10/01 07:20:52;;;;;;;9.30;3.07;;;13.50;99.90;;;;;;6249860;22;20200;-79
2023/10/01 07:23:24;;;;;;;13.07;2.80;;;13.60;99.90;;;;;;6249201;22;20195;-82
2023/10/01 07:26:02;;;;;;;8.40;2.80;;;13.60;99.90;;;;;;6277053;22;20169;-80
2023/10/01 07:28:41;;;;;;;10.43;3.03;;;13.60;99.90;;;;;;6249070;22;20177;-78
2023/10/01 07:31:19;;;;;;;12.03;3.67;;;13.80;99.90;;;;;;6250207;22;20608;-78
2023/10/01 07:34:01;;;;;;;11.70;2.83;;;13.80;99.90;;;;;;6251184;22;20239;-81
2023/10/01 07:36:35;;;;;;;9.93;3.30;;;13.80;99.90;;;;;;6249667;22;20188;-80
2023/10/01 07:39:37;;;;;;;11.47;3.20;;;13.90;99.90;;;;;;6254379;22;20170;-82
2023/10/01 07:42:17;;;;;;;11.87;3.30;;;14.10;99.90;;;;;;6274039;22;20188;-85
2023/10/01 07:44:47;;;;;;;9.97;3.00;;;14.00;99.90;;;;;;6248824;22;20990;-82
2023/10/01 07:47:29;;;;;;;8.00;3.20;;;14.20;99.90;;;;;;6248157;22;20614;-80
2023/10/01 07:50:12;;;;;;;7.80;2.77;;;14.30;99.90;;;;;;6248856;22;20663;-79
2023/10/01 07:52:44;;;;;;;8.60;2.87;;;14.40;99.90;;;;;;6275485;22;20185;-79
2023/10/01 07:55:35;;;;;;;8.57;2.90;;;14.60;99.90;;;;;;6275731;22;20188;-81
2023/10/01 07:58:45;;;;;;;10.33;2.53;;;14.60;99.90;;;;;;6275065;22;20176;-80
2023/10/01 08:07:15;;;;;;;11.73;3.03;;;14.90;99.90;;;;;;6248440;22;20200;-80
2023/10/01 08:10:20;;;;;;;6.73;2.37;;;15.00;99.90;;;;;;6228961;22;20682;-82
2023/10/01 08:13:05;;;;;;;7.03;2.23;;;15.30;99.90;;;;;;6247811;22;20185;-80
2023/10/01 09:04:29;;;;;;;5.50;2.40;;;16.70;99.90;;;;;;6063893;23;20180;-83
2023/10/01 09:15:37;;;;;;;;;;;;;;;;;;;;;
2023/10/01 09:31:52;;;;;;;8.63;2.40;;;16.80;99.90;;;;;;6065310;23;20264;-86
2023/10/01 09:39:38;;;;;;;8.63;2.73;;;16.90;99.90;;;;;;5914320;24;20253;-84
2023/10/01 09:47:14;;;;;;;7.40;2.30;;;17.80;99.90;;;;;;5771522;24;20187;-79
2023/10/01 09:49:54;;;;;;;7.47;2.33;;;18.00;99.90;;;;;;5807765;24;20191;-79
2023/10/01 09:55:29;;;;;;;6.93;2.37;;;18.50;99.90;;;;;;5942416;24;20172;-80
2023/10/01 09:57:58;;;;;;;9.67;2.83;;;18.90;99.90;;;;;;5950553;24;20252;-82
2023/10/01 10:00:49;;;;;;;9.33;2.67;;;19.10;99.90;;;;;;5956189;24;20168;-80
2023/10/01 10:03:20;;;;;;;7.83;2.83;;;19.20;99.90;;;;;;5931038;24;20433;-81
2023/10/01 10:05:53;;;;;;;9.00;2.50;;;18.80;99.90;;;;;;5986443;23;20712;-80
2023/10/01 10:08:26;;;;;;;9.13;2.40;;;18.90;99.90;;;;;;5995901;23;20180;-80
2023/10/01 10:10:55;;;;;;;9.00;3.27;;;19.10;99.90;;;;;;6086783;23;20241;-81
2023/10/01 10:13:50;;;;;;;10.53;3.20;;;19.00;99.90;;;;;;6063258;23;20196;-80
2023/10/01 10:16:32;;;;;;;10.80;2.43;;;19.10;99.90;;;;;;6087814;23;20245;-79
2023/10/01 10:19:08;;;;;;;9.53;2.70;;;18.90;99.90;;;;;;6048167;23;20347;-80
2023/10/01 10:22:05;;;;;;;6.40;2.50;;;18.70;99.90;;;;;;6010742;23;20193;-80
2023/10/01 10:25:26;;;;;;;9.30;2.77;;;18.80;99.90;;;;;;6100440;23;20255;-82
2023/10/01 10:28:09;;;;;;;9.50;2.67;;;19.00;99.90;;;;;;6121852;23;20579;-81
2023/10/01 10:30:41;;;;;;;6.30;2.40;;;19.70;99.90;;;;;;6048361;23;20184;-80
2023/10/01 10:33:14;;;;;;;9.83;2.60;;;19.90;99.90;;;;;;6139935;23;20211;-80
2023/10/01 10:36:50;;;;;;;6.93;2.20;;;20.10;99.90;;;;;;6277370;22;20224;-81
2023/10/01 10:39:48;;;;;;;10.53;2.60;;;19.90;99.90;;;;;;6295613;22;20230;-80
2023/10/01 10:42:33;;;;;;;8.33;2.60;;;20.00;99.90;;;;;;6282029;22;20184;-80
2023/10/01 10:45:21;;;;;;;6.77;2.20;;;20.50;99.90;;;;;;6279123;22;20184;-80
2023/10/01 10:48:21;;;;;;;6.37;2.10;;;21.00;99.90;;;;;;6255886;22;20611;-80
2023/10/01 10:51:07;;;;;;;5.47;2.30;;;21.30;99.90;;;;;;6278038;22;20235;-81
2023/10/01 10:54:02;;;;;;;5.47;2.10;;;21.40;99.90;;;;;;6255346;22;20502;-79
2023/10/01 10:56:46;;;;;;;9.20;2.60;;;21.20;99.90;;;;;;6256727;22;20180;-80
2023/10/01 10:59:30;;;;;;;11.10;2.80;;;21.40;99.90;;;;;;6255485;22;20172;-81
2023/10/01 11:02:03;;;;;;;5.73;2.20;;;20.90;99.90;;;;;;6254031;22;20243;-80
2023/10/01 11:05:05;;;;;;;4.87;1.90;;;21.50;99.90;;;;;;6278341;22;20591;-80
2023/10/01 11:08:05;;;;;;;6.30;2.10;;;22.30;99.90;;;;;;6278411;22;20173;-80
2023/10/01 11:10:55;;;;;;;6.87;2.43;;;22.80;99.90;;;;;;6253264;22;20173;-81
2023/10/01 11:13:45;;;;;;;6.80;2.17;;;22.60;99.90;;;;;;6305759;22;20196;-80
2023/10/01 11:16:38;;;;;;;12.77;2.20;;;22.80;99.90;;;;;;6257026;22;20169;-79
2023/10/01 11:19:16;;;;;;;5.57;1.83;;;22.70;99.90;;;;;;6304039;22;20226;-80
2023/10/01 11:21:55;;;;;;;6.37;2.00;;;22.80;99.90;;;;;;6303406;22;20181;-81
2023/10/01 11:24:41;;;;;;;7.00;2.20;;;23.10;99.90;;;;;;6303811;22;20161;-82
2023/10/01 11:27:45;;;;;;;6.53;1.98;;;22.90;99.90;;;;;;6255214;22;20168;-82
2023/10/01 11:30:44;;;;;;;5.93;2.05;;;23.00;99.90;;;;;;6305558;22;20169;-85
2023/10/01 11:34:21;;;;;;;;;;;;;;;;;;;;;
2023/10/01 11:41:12;;;;;;;5.50;1.88;;;22.60;99.90;;;;;;6127849;23;20320;-83
2023/10/01 11:44:01;;;;;;;5.60;2.13;;;23.40;99.90;;;;;;6166850;23;20172;-79
2023/10/01 11:49:37;;;;;;;6.50;2.47;;;23.30;99.90;;;;;;6152200;23;20532;-79
2023/10/01 11:52:25;;;;;;;7.00;2.30;;;23.50;99.90;;;;;;6152854;23;20687;-79
2023/10/01 11:55:21;;;;;;;6.65;2.05;;;23.10;99.90;;;;;;6145854;23;20215;-78
2023/10/01 11:57:53;;;;;;;6.07;2.07;;;22.70;99.90;;;;;;6152645;23;20300;-81
2023/10/01 12:00:52;;;;;;;6.33;1.90;;;22.50;99.90;;;;;;6152125;23;20172;-83
2023/10/01 12:03:34;;;;;;;5.03;1.73;;;22.50;99.90;;;;;;6153410;23;20254;-80
2023/10/01 12:06:13;;;;;;;4.80;1.83;;;21.80;99.90;;;;;;6130127;23;20192;-80
2023/10/01 12:08:54;;;;;;;6.33;1.80;;;21.90;99.90;;;;;;6128484;23;20169;-80
2023/10/01 12:11:29;;;;;;;3.60;1.70;;;21.90;99.90;;;;;;6165767;23;20179;-79
2023/10/01 12:14:17;;;;;;;6.07;1.87;;;22.00;99.90;;;;;;6181767;23;20203;-81
2023/10/01 12:16:49;;;;;;;6.30;1.87;;;21.70;99.90;;;;;;6157286;23;20194;-79
2023/10/01 12:19:27;;;;;;;4.60;2.17;;;22.00;99.90;;;;;;6181126;23;20622;-81
2023/10/01 12:22:06;;;;;;;4.97;1.97;;;21.60;99.90;;;;;;6181650;23;20682;-81
2023/10/01 12:24:44;;;;;;;6.80;1.70;;;21.50;99.90;;;;;;6147519;23;20218;-79
2023/10/01 12:30:35;;;;;;;6.40;1.67;;;21.40;99.90;;;;;;6308216;22;20168;-80
2023/10/01 12:33:05;;;;;;;4.37;1.57;;;21.30;99.90;;;;;;6307197;22;20493;-81
2023/10/01 12:35:47;;;;;;;3.47;1.70;;;21.00;99.90;;;;;;6256489;22;20189;-81
2023/10/01 12:40:52;;;;;;;5.20;1.70;;;20.80;99.90;;;;;;6307072;22;20165;-81
2023/10/01 12:43:42;;;;;;;4.60;1.53;;;20.70;99.90;;;;;;6306993;22;20187;-80
2023/10/01 12:46:18;;;;;;;6.27;1.50;;;21.00;99.90;;;;;;6279876;22;20169;-80
2023/10/01 12:51:48;;;;;;;4.23;1.47;;;20.60;99.90;;;;;;6306946;22;20193;-82
2023/10/01 12:54:22;;;;;;;4.43;1.50;;;20.10;99.90;;;;;;6254351;22;20238;-81
2023/10/01 12:57:12;;;;;;;3.60;1.50;;;20.10;99.90;;;;;;6282136;22;20145;-81
2023/10/01 12:59:46;;;;;;;4.60;1.63;;;20.30;99.90;;;;;;6279522;22;20268;-80
2023/10/01 13:02:22;;;;;;;3.73;1.57;;;20.20;99.90;;;;;;6305819;22;20235;-80
2023/10/01 13:08:11;;;;;;;5.53;1.70;;;19.50;99.90;;;;;;6211342;23;20229;-79
2023/10/01 13:10:50;;;;;;;4.97;1.70;;;19.40;99.90;;;;;;6225762;23;20178;-78
2023/10/01 13:13:30;;;;;;;3.60;1.53;;;19.40;99.90;;;;;;6212430;23;20271;-78
2023/10/01 13:16:16;;;;;;;5.83;1.60;;;19.50;99.90;;;;;;6185897;23;20229;-79
2023/10/01 13:18:47;;;;;;;7.20;1.80;;;19.60;99.90;;;;;;6186408;23;20167;-78
2023/10/01 13:21:27;;;;;;;4.07;1.60;;;19.70;99.90;;;;;;6185894;23;20210;-81
2023/10/01 13:24:11;;;;;;;7.93;1.90;;;19.40;99.90;;;;;;6185676;23;20175;-81
2023/10/01 13:27:05;;;;;;;4.53;1.60;;;19.60;99.90;;;;;;6188343;23;20550;-81
2023/10/01 13:29:38;;;;;;;5.10;1.80;;;19.50;99.90;;;;;;6185232;23;20289;-80
2023/10/01 13:32:26;;;;;;;6.43;1.80;;;19.40;99.90;;;;;;6211613;23;20181;-80
2023/10/01 13:35:30;;;;;;;7.27;1.70;;;19.30;99.90;;;;;;6211406;23;20543;-79
2023/10/01 13:37:48;;;;;;;6.53;1.87;;;19.30;99.90;;;;;;6213438;22;20173;-79
2023/10/01 13:40:29;;;;;;;6.60;1.90;;;19.40;99.90;;;;;;6305193;22;20169;-78
2023/10/01 14:08:43;;;;;;;5.83;1.60;;;18.80;99.90;;;;;;6305603;22;20622;-78
2023/10/01 14:11:26;;;;;;;5.70;1.90;;;18.80;99.90;;;;;;6278827;22;20169;-78
2023/10/01 14:14:00;;;;;;;3.80;1.50;;;18.70;99.90;;;;;;6279274;22;20231;-79
2023/10/01 14:16:32;;;;;;;5.23;1.73;;;18.50;99.90;;;;;;6278574;22;20480;-79
2023/10/01 14:19:17;;;;;;;4.53;1.60;;;18.30;99.90;;;;;;6305697;22;20149;-80
2023/10/01 14:21:59;;;;;;;8.20;1.77;;;18.10;99.90;;;;;;6278566;22;20631;-78
2023/10/01 14:24:27;;;;;;;4.23;1.57;;;18.20;99.90;;;;;;6278836;22;20161;-81
2023/10/01 14:26:55;;;;;;;6.93;1.90;;;18.40;99.90;;;;;;6278815;22;20240;-81
2023/10/01 14:29:33;;;;;;;6.70;1.60;;;18.50;99.90;;;;;;6278647;22;20173;-79
2023/10/01 14:32:10;;;;;;;4.07;1.77;;;18.40;99.90;;;;;;6303928;22;20171;-81
2023/10/01 14:34:42;;;;;;;5.43;2.10;;;18.30;99.90;;;;;;6302658;22;20275;-81
2023/10/01 14:37:20;;;;;;;7.57;1.80;;;18.10;99.90;;;;;;6281420;22;20184;-81
2023/10/01 14:40:13;;;;;;;6.03;2.10;;;18.10;99.90;;;;;;6281636;22;20150;-79
2023/10/01 14:42:47;;;;;;;4.93;1.77;;;18.10;99.90;;;;;;6279911;22;20431;-80
2023/10/01 14:45:18;;;;;;;6.90;1.97;;;18.30;99.90;;;;;;6303858;22;20157;-80
2023/10/01 14:47:46;;;;;;;8.77;2.00;;;18.10;99.90;;;;;;6278854;22;20482;-80
2023/10/01 14:50:17;;;;;;;5.57;1.60;;;17.90;99.90;;;;;;6305964;22;20187;-80
2023/10/01 14:52:47;;;;;;;4.20;1.80;;;17.90;99.90;;;;;;6306484;22;20628;-79
2023/10/01 14:55:22;;;;;;;5.87;1.73;;;17.90;99.90;;;;;;6253506;22;20192;-80
2023/10/01 14:57:56;;;;;;;6.27;1.93;;;17.70;99.90;;;;;;6279366;22;20171;-80
2023/10/01 15:00:27;;;;;;;5.83;1.50;;;17.50;99.90;;;;;;6306035;22;20176;-80
2023/10/01 15:02:57;;;;;;;5.30;1.77;;;17.50;99.90;;;;;;6278956;22;20607;-79
2023/10/01 15:05:26;;;;;;;5.50;1.77;;;17.60;99.90;;;;;;6306223;22;20270;-80
2023/10/01 15:07:58;;;;;;;6.97;2.07;;;17.40;99.90;;;;;;6254957;22;20168;-80
2023/10/01 15:10:29;;;;;;;6.67;1.80;;;17.40;99.90;;;;;;6281277;22;20153;-80
2023/10/01 15:13:01;;;;;;;6.10;1.70;;;17.50;99.90;;;;;;6280653;22;20173;-80
2023/10/01 15:15:48;;;;;;;6.37;1.73;;;17.40;99.90;;;;;;6278949;22;20446;-80
2023/10/01 15:19:00;;;;;;;4.87;1.60;;;17.30;99.90;;;;;;6279309;22;20180;-81
2023/10/01 15:21:42;;;;;;;5.77;1.70;;;17.50;99.90;;;;;;6255624;22;20328;-81
2023/10/01 15:42:38;;;;;;;4.70;1.80;;;17.00;99.90;;;;;;6210089;23;20642;-83
2023/10/01 15:56:02;;;;;;;6.57;1.70;;;16.80;99.90;;;;;;6127926;22;20404;-81
2023/10/01 16:58:56;;;;;;;7.60;2.60;;;15.50;99.90;;;;;;6172509;22;20219;-84
2023/10/01 18:33:35;;;;;;;10.50;4.00;;;13.90;99.90;;;;;;6199645;22;20231;-86
2023/10/01 19:31:09;;;;;;;11.80;5.00;;;13.40;99.90;;;;;;6130329;22;20218;-80
2023/10/01 19:33:51;;;;;;;9.00;4.40;;;13.30;99.90;;;;;;6275671;22;20182;-79
2023/10/01 19:36:27;;;;;;;10.27;4.90;;;13.30;99.90;;;;;;6306550;22;20206;-87
2023/10/01 19:39:22;;;;;;;11.00;4.50;;;13.30;99.90;;;;;;6284223;22;20200;-88
2023/10/01 19:46:19;;;;;;;11.93;5.23;;;13.30;99.90;;;;;;6098538;23;20301;-87
2023/10/01 19:48:59;;;;;;;12.73;5.00;;;13.30;99.90;;;;;;6125255;23;20169;-89
2023/10/01 19:51:53;;;;;;;11.33;5.30;;;13.30;99.90;;;;;;6123895;23;20197;-90
2023/10/01 19:54:42;;;;;;;10.97;5.20;;;13.20;99.90;;;;;;6094237;23;20613;-88
2023/10/01 19:57:45;;;;;;;12.07;5.20;;;13.20;99.90;;;;;;6110066;23;20261;-79
2023/10/01 20:00:29;;;;;;;11.10;5.17;;;13.20;99.90;;;;;;6123092;23;20165;-79
2023/10/01 20:03:13;;;;;;;11.63;5.30;;;13.10;99.90;;;;;;6093697;23;20206;-78
2023/10/01 20:05:46;;;;;;;13.27;5.20;;;13.10;99.90;;;;;;6087704;23;20567;-78
2023/10/01 20:08:44;;;;;;;13.43;5.20;;;13.10;99.90;;;;;;6088233;23;20515;-92
2023/10/01 20:20:46;;;;;;;;;;;;;;;;;;;;;
2023/10/01 20:28:41;;;;;;;14.50;5.20;;;12.80;99.90;;;;;;6056873;23;20257;-88
2023/10/01 20:50:12;;;;;;;12.43;5.50;;;12.60;99.90;;;;;;4945123;29;20723;-88
2023/10/01 20:53:20;;;;;;;12.73;5.60;;;12.70;99.90;;;;;;4892179;29;20249;-88
2023/10/01 20:56:36;;;;;;;15.30;5.97;;;12.60;99.90;;;;;;4852207;29;20205;-88
2023/10/01 21:00:22;;;;;;;15.00;5.73;;;12.50;99.90;;;;;;4872527;29;20654;-80
2023/10/01 21:02:41;;;;;;;15.07;5.87;;;12.50;99.90;;;;;;4850741;29;20366;-80
2023/10/01 21:05:27;;;;;;;12.63;6.27;;;12.40;99.90;;;;;;4857225;29;20205;-87
2023/10/01 21:08:26;;;;;;;13.73;6.40;;;12.40;99.90;;;;;;4858512;29;20297;-80